Time,TemperatureF,DewpointF,PressureIn,WindDirection,WindDirectionDegrees,WindSpeedMPH,WindSpeedGustMPH,Humidity,HourlyPrecipIn,Conditions,Clouds,dailyrainin,SoftwareType,DateUTC
2014-01-01 00:01:00,3.9,0.2,30.25,WNW,300,8.4,22.4,84,0.00,,,0.00,VWS V14.01,2014-01-01 05:01:00,
2014-01-01 00:06:00,4.0,0.5,30.24,NW,308,2.8,16.8,85,0.00,,,0.00,VWS V14.01,2014-01-01 05:06:00,
2014-01-01 00:11:00,4.1,0.3,30.25,West,277,16.8,16.8,84,0.00,,,0.00,VWS V14.01,2014-01-01 05:11:00,
2014-01-01 00:16:00,4.1,0.3,30.25,West,274,12.6,16.8,84,0.00,,,0.00,VWS V14.01,2014-01-01 05:16:00,
2014-01-01 00:21:00,4.2,0.4,30.25,WNW,288,8.4,16.8,84,0.00,,,0.00,VWS V14.01,2014-01-01 05:21:00,
2014-01-01 00:26:00,4.3,0.6,30.25,WNW,290,12.6,16.8,84,0.00,,,0.00,VWS V14.01,2014-01-01 05:26:00,
2014-01-01 00:31:00,4.3,0.6,30.25,SSE,167,2.8,16.8,84,0.00,,,0.00,VWS V14.01,2014-01-01 05:31:00,
2014-01-01 00:36:00,4.6,1.3,30.26,WNW,288,4.2,18.2,86,0.00,,,0.00,VWS V14.01,2014-01-01 05:36:00,
2014-01-01 00:41:00,5.5,2.7,30.26,NNE,33,2.8,18.2,88,0.00,,,0.00,VWS V14.01,2014-01-01 05:41:00,
2014-01-01 00:46:00,6.3,3.5,30.26,NNW,333,2.8,18.2,88,0.00,,,0.00,VWS V14.01,2014-01-01 05:46:00,
2014-01-01 00:51:00,6.4,3.6,30.26,ENE,74,5.6,18.2,88,0.00,,,0.00,VWS V14.01,2014-01-01 05:51:00,
2014-01-01 00:56:00,6.3,3.3,30.26,NNE,19,0.0,18.2,87,0.00,,,0.00,VWS V14.01,2014-01-01 05:56:00,
2014-01-01 01:00:00,4.7,1.4,30.29,ESE,113,5.6,18.2,86,0.00,,,0.00,VWS V14.01,2014-01-01 06:00:00,
2014-01-01 01:01:00,6.2,3.2,30.26,ESE,109,5.6,18.2,87,0.00,,,0.00,VWS V14.01,2014-01-01 06:01:00,
2014-01-01 01:06:00,6.2,3.2,30.26,NNW,338,2.8,18.2,87,0.00,,,0.00,VWS V14.01,2014-01-01 06:06:00,
2014-01-01 01:11:00,6.2,3.2,30.26,ENE,72,0.0,18.2,87,0.00,,,0.00,VWS V14.01,2014-01-01 06:11:00,
2014-01-01 01:14:00,6.1,3.1,30.26,ENE,71,1.4,18.2,87,0.00,,,0.00,VWS V14.01,2014-01-01 06:14:00,
2014-01-01 01:19:00,5.9,2.6,30.26,SE,142,2.8,18.2,86,0.00,,,0.00,VWS V14.01,2014-01-01 06:19:00,
2014-01-01 01:24:00,5.6,2.3,30.26,ESE,112,0.0,18.2,86,0.00,,,0.00,VWS V14.01,2014-01-01 06:24:00,
2014-01-01 01:29:00,5.4,2.1,30.27,East,86,1.4,18.2,86,0.00,,,0.00,VWS V14.01,2014-01-01 06:29:00,
2014-01-01 01:34:00,5.5,2.5,30.27,ENE,68,5.6,18.2,87,0.00,,,0.00,VWS V14.01,2014-01-01 06:34:00,
2014-01-01 01:39:00,5.3,2.0,30.28,East,84,4.2,18.2,86,0.00,,,0.00,VWS V14.01,2014-01-01 06:39:00,
2014-01-01 01:44:00,5.2,2.2,30.28,East,98,5.6,18.2,87,0.00,,,0.00,VWS V14.01,2014-01-01 06:44:00,
2014-01-01 01:49:00,5.0,1.7,30.28,ENE,67,8.4,18.2,86,0.00,,,0.00,VWS V14.01,2014-01-01 06:49:00,
2014-01-01 01:54:00,4.9,1.6,30.28,NE,49,4.2,18.2,86,0.00,,,0.00,VWS V14.01,2014-01-01 06:54:00,
2014-01-01 01:55:00,4.9,1.6,30.28,East,97,7.0,18.2,86,0.00,,,0.00,VWS V14.01,2014-01-01 06:55:00,
2014-01-01 02:00:00,4.7,1.4,30.29,ENE,71,4.2,18.2,86,0.00,,,0.00,VWS V14.01,2014-01-01 07:00:00,
2014-01-01 02:05:00,4.8,1.8,30.29,ESE,103,4.2,12.6,87,0.00,,,0.00,VWS V14.01,2014-01-01 07:05:00,
2014-01-01 02:10:00,4.4,1.1,30.29,ENE,64,4.2,12.6,86,0.00,,,0.00,VWS V14.01,2014-01-01 07:10:00,
2014-01-01 02:15:00,4.1,0.9,30.30,NNW,348,1.4,12.6,86,0.00,,,0.00,VWS V14.01,2014-01-01 07:15:00,
2014-01-01 02:20:00,3.9,0.6,30.30,NNE,18,8.4,12.6,86,0.00,,,0.00,VWS V14.01,2014-01-01 07:20:00,
2014-01-01 02:22:00,3.9,0.6,30.30,ENE,71,5.6,12.6,86,0.00,,,0.00,VWS V14.01,2014-01-01 07:22:00,
2014-01-01 02:27:00,3.9,0.6,30.31,ENE,60,5.6,12.6,86,0.00,,,0.00,VWS V14.01,2014-01-01 07:27:00,
2014-01-01 02:32:00,3.7,0.5,30.30,NE,36,2.8,12.6,86,0.00,,,0.00,VWS V14.01,2014-01-01 07:32:00,
2014-01-01 02:37:00,3.3,-0.2,30.31,NE,39,5.6,12.6,85,0.00,,,0.00,VWS V14.01,2014-01-01 07:37:00,
2014-01-01 02:42:00,3.2,0.0,30.31,East,91,8.4,12.6,86,0.00,,,0.00,VWS V14.01,2014-01-01 07:42:00,
2014-01-01 02:47:00,3.1,-0.4,30.31,East,94,4.2,14.0,85,0.00,,,0.00,VWS V14.01,2014-01-01 07:47:00,
2014-01-01 02:52:00,3.1,-0.1,30.32,East,91,8.4,15.4,86,0.00,,,0.00,VWS V14.01,2014-01-01 07:52:00,
2014-01-01 02:57:00,3.0,-0.2,30.32,East,79,8.4,18.2,86,0.00,,,0.00,VWS V14.01,2014-01-01 07:57:00,
2014-01-01 03:00:00,2.7,-0.8,30.32,ESE,120,7.0,18.2,85,0.00,,,0.00,VWS V14.01,2014-01-01 08:00:00,
2014-01-01 03:05:00,2.7,-0.5,30.32,ENE,66,15.4,18.2,86,0.00,,,0.00,VWS V14.01,2014-01-01 08:05:00,
2014-01-01 03:10:00,2.4,-1.1,30.32,NE,34,12.6,18.2,85,0.00,,,0.00,VWS V14.01,2014-01-01 08:10:00,
2014-01-01 03:15:00,2.2,-1.3,30.33,ENE,62,7.0,18.2,85,0.00,,,0.00,VWS V14.01,2014-01-01 08:15:00,
2014-01-01 03:20:00,2.1,-1.1,30.33,ENE,67,5.6,18.2,86,0.00,,,0.00,VWS V14.01,2014-01-01 08:20:00,
2014-01-01 03:25:00,2.0,-1.2,30.33,NE,41,5.6,18.2,86,0.00,,,0.00,VWS V14.01,2014-01-01 08:25:00,
2014-01-01 03:30:00,1.6,-2.1,30.33,ENE,75,4.2,18.2,84,0.00,,,0.00,VWS V14.01,2014-01-01 08:30:00,
2014-01-01 03:35:00,1.7,-1.8,30.33,NNW,327,5.6,18.2,85,0.00,,,0.00,VWS V14.01,2014-01-01 08:35:00,
2014-01-01 03:40:00,1.6,-1.6,30.33,NNE,29,4.2,18.2,86,0.00,,,0.00,VWS V14.01,2014-01-01 08:40:00,
2014-01-01 03:45:00,1.4,-2.0,30.34,NE,56,2.8,18.2,85,0.00,,,0.00,VWS V14.01,2014-01-01 08:45:00,
2014-01-01 03:50:00,1.2,-2.0,30.33,ENE,70,8.4,18.2,86,0.00,,,0.00,VWS V14.01,2014-01-01 08:50:00,
2014-01-01 03:55:00,0.9,-2.5,30.34,NE,50,8.4,18.2,85,0.00,,,0.00,VWS V14.01,2014-01-01 08:55:00,
2014-01-01 04:00:00,0.7,-2.7,30.34,SE,125,2.8,18.2,85,0.00,,,0.00,VWS V14.01,2014-01-01 09:00:00,
2014-01-01 04:05:00,0.8,-2.4,30.34,NE,41,9.8,16.8,86,0.00,,,0.00,VWS V14.01,2014-01-01 09:05:00,
2014-01-01 04:10:00,0.4,-3.3,30.34,ENE,74,5.6,16.8,84,0.00,,,0.00,VWS V14.01,2014-01-01 09:10:00,
2014-01-01 04:15:00,0.2,-3.2,30.34,ESE,115,9.8,16.8,85,0.00,,,0.00,VWS V14.01,2014-01-01 09:15:00,
2014-01-01 04:20:00,-0.2,-3.6,30.34,SSE,155,2.8,16.8,85,0.00,,,0.00,VWS V14.01,2014-01-01 09:20:00,
2014-01-01 04:25:00,-0.7,-4.4,30.35,ESE,105,8.4,16.8,84,0.00,,,0.00,VWS V14.01,2014-01-01 09:25:00,
2014-01-01 04:30:00,-0.7,-4.1,30.35,SE,129,8.4,16.8,85,0.00,,,0.00,VWS V14.01,2014-01-01 09:30:00,
2014-01-01 04:35:00,-0.9,-4.3,30.35,ENE,75,5.6,18.2,85,0.00,,,0.00,VWS V14.01,2014-01-01 09:35:00,
2014-01-01 04:40:00,-1.0,-4.4,30.35,NE,56,9.8,18.2,85,0.00,,,0.00,VWS V14.01,2014-01-01 09:40:00,
2014-01-01 04:45:00,-1.1,-4.3,30.35,NE,41,14.0,18.2,86,0.00,,,0.00,VWS V14.01,2014-01-01 09:45:00,
2014-01-01 04:50:00,-1.0,-4.2,30.35,ESE,108,5.6,18.2,86,0.00,,,0.00,VWS V14.01,2014-01-01 09:50:00,
2014-01-01 04:55:00,-1.1,-4.5,30.35,ENE,72,8.4,18.2,85,0.00,,,0.00,VWS V14.01,2014-01-01 09:55:00,
2014-01-01 05:00:00,-1.3,-4.7,30.35,NE,42,8.4,18.2,85,0.00,,,0.00,VWS V14.01,2014-01-01 10:00:00,
2014-01-01 05:05:00,-1.5,-4.9,30.35,East,83,7.0,18.2,85,0.00,,,0.00,VWS V14.01,2014-01-01 10:05:00,
2014-01-01 05:10:00,-1.8,-5.4,30.36,East,94,9.8,18.2,84,0.00,,,0.00,VWS V14.01,2014-01-01 10:10:00,
2014-01-01 05:15:00,-2.2,-5.8,30.36,ESE,105,9.8,18.2,84,0.00,,,0.00,VWS V14.01,2014-01-01 10:15:00,
2014-01-01 05:20:00,-2.9,-6.5,30.36,ESE,117,8.4,19.6,84,0.00,,,0.00,VWS V14.01,2014-01-01 10:20:00,
2014-01-01 05:25:00,-2.9,-6.3,30.36,ESE,108,5.6,19.6,85,0.00,,,0.00,VWS V14.01,2014-01-01 10:25:00,
2014-01-01 05:30:00,-3.1,-6.7,30.36,ESE,105,11.2,19.6,84,0.00,,,0.00,VWS V14.01,2014-01-01 10:30:00,
2014-01-01 05:35:00,-3.2,-6.6,30.36,ENE,70,11.2,19.6,85,0.00,,,0.00,VWS V14.01,2014-01-01 10:35:00,
2014-01-01 05:40:00,-3.4,-7.0,30.37,East,100,11.2,19.6,84,0.00,,,0.00,VWS V14.01,2014-01-01 10:40:00,
2014-01-01 05:45:00,-4.1,-7.9,30.37,ENE,63,8.4,19.6,83,0.00,,,0.00,VWS V14.01,2014-01-01 10:45:00,
2014-01-01 05:50:00,-3.8,-7.2,30.38,ESE,104,9.8,19.6,85,0.00,,,0.00,VWS V14.01,2014-01-01 10:50:00,
2014-01-01 05:55:00,-4.1,-7.7,30.38,ESE,110,11.2,19.6,84,0.00,,,0.00,VWS V14.01,2014-01-01 10:55:00,
2014-01-01 06:00:00,-4.2,-7.6,30.39,ESE,117,9.8,19.6,85,0.00,,,0.00,VWS V14.01,2014-01-01 11:00:00,
2014-01-01 06:05:00,-4.6,-8.2,30.39,SE,146,9.8,15.4,84,0.00,,,0.00,VWS V14.01,2014-01-01 11:05:00,
2014-01-01 06:10:00,-4.9,-8.7,30.39,SSE,160,9.8,15.4,83,0.00,,,0.00,VWS V14.01,2014-01-01 11:10:00,
2014-01-01 06:15:00,-5.5,-9.3,30.40,SSE,163,11.2,15.4,83,0.00,,,0.00,VWS V14.01,2014-01-01 11:15:00,
2014-01-01 06:20:00,-5.7,-9.5,30.40,SSE,152,2.8,15.4,83,0.00,,,0.00,VWS V14.01,2014-01-01 11:20:00,
2014-01-01 06:25:00,-5.7,-9.3,30.40,SE,131,4.2,15.4,84,0.00,,,0.00,VWS V14.01,2014-01-01 11:25:00,
2014-01-01 06:30:00,-5.7,-9.3,30.40,SE,127,7.0,15.4,84,0.00,,,0.00,VWS V14.01,2014-01-01 11:30:00,
2014-01-01 06:35:00,-5.6,-9.2,30.40,East,98,12.6,15.4,84,0.00,,,0.00,VWS V14.01,2014-01-01 11:35:00,
2014-01-01 06:39:00,-5.5,-9.1,30.40,East,99,8.4,15.4,84,0.00,,,0.00,VWS V14.01,2014-01-01 11:39:00,
2014-01-01 06:44:00,-5.4,-9.0,30.40,ENE,74,5.6,15.4,84,0.00,,,0.00,VWS V14.01,2014-01-01 11:44:00,
2014-01-01 06:49:00,-5.6,-9.4,30.40,East,94,4.2,15.4,83,0.00,,,0.00,VWS V14.01,2014-01-01 11:49:00,
2014-01-01 06:54:00,-5.8,-9.6,30.40,East,91,11.2,15.4,83,0.00,,,0.00,VWS V14.01,2014-01-01 11:54:00,
2014-01-01 06:59:00,-6.1,-9.9,30.40,ESE,103,8.4,18.2,83,0.00,,,0.00,VWS V14.01,2014-01-01 11:59:00,
2014-01-01 07:00:00,-9.0,-13.2,30.43,East,99,5.6,18.2,81,0.00,,,0.00,VWS V14.01,2014-01-01 12:00:00,
2014-01-01 07:04:00,-6.3,-10.1,30.40,East,86,9.8,18.2,83,0.00,,,0.00,VWS V14.01,2014-01-01 12:04:00,
2014-01-01 07:09:00,-6.4,-10.2,30.40,ESE,114,8.4,18.2,83,0.00,,,0.00,VWS V14.01,2014-01-01 12:09:00,
2014-01-01 07:14:00,-6.7,-10.5,30.41,ENE,65,7.0,18.2,83,0.00,,,0.00,VWS V14.01,2014-01-01 12:14:00,
2014-01-01 07:19:00,-6.7,-10.5,30.41,ENE,70,7.0,18.2,83,0.00,,,0.00,VWS V14.01,2014-01-01 12:19:00,
2014-01-01 07:24:00,-6.9,-10.9,30.41,ESE,110,4.2,18.2,82,0.00,,,0.00,VWS V14.01,2014-01-01 12:24:00,
2014-01-01 07:29:00,-7.2,-11.2,30.42,East,96,11.2,18.2,82,0.00,,,0.00,VWS V14.01,2014-01-01 12:29:00,
2014-01-01 07:34:00,-7.5,-11.5,30.42,South,190,4.2,18.2,82,0.00,,,0.00,VWS V14.01,2014-01-01 12:34:00,
2014-01-01 07:39:00,-7.8,-11.8,30.42,East,88,11.2,18.2,82,0.00,,,0.00,VWS V14.01,2014-01-01 12:39:00,
2014-01-01 07:44:00,-8.0,-12.0,30.42,ESE,103,7.0,18.2,82,0.00,,,0.00,VWS V14.01,2014-01-01 12:44:00,
2014-01-01 07:49:00,-8.4,-12.6,30.43,SSE,161,7.0,18.2,81,0.00,,,0.00,VWS V14.01,2014-01-01 12:49:00,
2014-01-01 07:54:00,-8.7,-12.9,30.43,ESE,113,7.0,18.2,81,0.00,,,0.00,VWS V14.01,2014-01-01 12:54:00,
2014-01-01 07:59:00,-9.0,-13.2,30.43,SE,124,7.0,18.2,81,0.00,,,0.00,VWS V14.01,2014-01-01 12:59:00,
2014-01-01 08:00:00,-9.0,-13.2,30.43,East,99,5.6,18.2,81,0.00,,,0.00,VWS V14.01,2014-01-01 13:00:00,
2014-01-01 08:04:00,-8.9,-12.9,30.43,SSE,158,7.0,15.4,82,0.00,,,0.00,VWS V14.01,2014-01-01 13:04:00,
2014-01-01 08:09:00,-9.2,-13.4,30.44,East,93,5.6,15.4,81,0.00,,,0.00,VWS V14.01,2014-01-01 13:09:00,
2014-01-01 08:14:00,-9.5,-14.0,30.44,SSE,152,4.2,15.4,80,0.00,,,0.00,VWS V14.01,2014-01-01 13:14:00,
2014-01-01 08:19:00,-9.7,-14.2,30.44,ESE,105,11.2,15.4,80,0.00,,,0.00,VWS V14.01,2014-01-01 13:19:00,
2014-01-01 08:24:00,-9.8,-14.5,30.44,East,94,14.0,16.8,79,0.00,,,0.00,VWS V14.01,2014-01-01 13:24:00,
2014-01-01 08:29:00,-9.7,-14.4,30.44,East,91,11.2,16.8,79,0.00,,,0.00,VWS V14.01,2014-01-01 13:29:00,
2014-01-01 08:34:00,-9.7,-14.7,30.45,ESE,122,8.4,16.8,78,0.00,,,0.00,VWS V14.01,2014-01-01 13:34:00,
2014-01-01 08:39:00,-9.7,-14.7,30.45,ESE,103,11.2,16.8,78,0.00,,,0.00,VWS V14.01,2014-01-01 13:39:00,
2014-01-01 08:44:00,-9.7,-14.7,30.45,SSE,165,7.0,16.8,78,0.00,,,0.00,VWS V14.01,2014-01-01 13:44:00,
2014-01-01 08:49:00,-9.7,-14.9,30.45,SSE,159,5.6,16.8,77,0.00,,,0.00,VWS V14.01,2014-01-01 13:49:00,
2014-01-01 08:54:00,-9.6,-14.8,30.45,ESE,114,11.2,16.8,77,0.00,,,0.00,VWS V14.01,2014-01-01 13:54:00,
2014-01-01 08:59:00,-9.6,-15.1,30.45,ESE,115,11.2,18.2,76,0.00,,,0.00,VWS V14.01,2014-01-01 13:59:00,
2014-01-01 09:00:00,-8.5,-14.3,30.48,ESE,109,8.4,18.2,75,0.00,,,0.00,VWS V14.01,2014-01-01 14:00:00,
2014-01-01 09:04:00,-9.5,-14.7,30.46,ESE,103,11.2,18.2,77,0.00,,,0.00,VWS V14.01,2014-01-01 14:04:00,
2014-01-01 09:09:00,-9.2,-14.7,30.47,ESE,103,7.0,18.2,76,0.00,,,0.00,VWS V14.01,2014-01-01 14:09:00,
2014-01-01 09:14:00,-8.9,-14.4,30.47,SSE,153,4.2,18.2,76,0.00,,,0.00,VWS V14.01,2014-01-01 14:14:00,
2014-01-01 09:19:00,-8.6,-14.1,30.47,ESE,116,8.4,18.2,76,0.00,,,0.00,VWS V14.01,2014-01-01 14:19:00,
2014-01-01 09:24:00,-8.5,-14.0,30.47,ESE,113,5.6,18.2,76,0.00,,,0.00,VWS V14.01,2014-01-01 14:24:00,
2014-01-01 09:29:00,-8.1,-13.6,30.47,SE,137,2.8,18.2,76,0.00,,,0.00,VWS V14.01,2014-01-01 14:29:00,
2014-01-01 09:34:00,-7.6,-13.1,30.48,ESE,110,2.8,18.2,76,0.00,,,0.00,VWS V14.01,2014-01-01 14:34:00,
2014-01-01 09:39:00,-7.6,-13.4,30.48,SSE,153,7.0,18.2,75,0.00,,,0.00,VWS V14.01,2014-01-01 14:39:00,
2014-01-01 09:44:00,-7.6,-13.4,30.48,SSE,158,2.8,18.2,75,0.00,,,0.00,VWS V14.01,2014-01-01 14:44:00,
2014-01-01 09:49:00,-8.1,-14.1,30.48,ESE,110,7.0,18.2,74,0.00,,,0.00,VWS V14.01,2014-01-01 14:49:00,
2014-01-01 09:54:00,-8.4,-14.4,30.48,ESE,120,8.4,18.2,74,0.00,,,0.00,VWS V14.01,2014-01-01 14:54:00,
2014-01-01 09:59:00,-8.4,-14.2,30.48,ENE,66,8.4,18.2,75,0.00,,,0.00,VWS V14.01,2014-01-01 14:59:00,
2014-01-01 10:00:00,-8.5,-14.3,30.48,ESE,109,8.4,18.2,75,0.00,,,0.00,VWS V14.01,2014-01-01 15:00:00,
2014-01-01 10:04:00,-8.6,-14.6,30.49,SE,143,7.0,16.8,74,0.00,,,0.00,VWS V14.01,2014-01-01 15:04:00,
2014-01-01 10:09:00,-8.5,-14.5,30.49,SE,129,5.6,16.8,74,0.00,,,0.00,VWS V14.01,2014-01-01 15:09:00,
2014-01-01 10:14:00,-8.6,-14.6,30.49,ESE,122,7.0,16.8,74,0.00,,,0.00,VWS V14.01,2014-01-01 15:14:00,
2014-01-01 10:19:00,-8.8,-14.8,30.49,ESE,105,5.6,16.8,74,0.00,,,0.00,VWS V14.01,2014-01-01 15:19:00,
2014-01-01 10:24:00,-8.9,-14.9,30.49,ENE,72,4.2,16.8,74,0.00,,,0.00,VWS V14.01,2014-01-01 15:24:00,
2014-01-01 10:29:00,-9.0,-15.0,30.49,SE,132,4.2,16.8,74,0.00,,,0.00,VWS V14.01,2014-01-01 15:29:00,
2014-01-01 10:34:00,-8.9,-14.7,30.49,ESE,103,4.2,16.8,75,0.00,,,0.00,VWS V14.01,2014-01-01 15:34:00,
2014-01-01 10:39:00,-8.7,-14.2,30.49,SE,127,2.8,16.8,76,0.00,,,0.00,VWS V14.01,2014-01-01 15:39:00,
2014-01-01 10:44:00,-8.4,-13.7,30.49,East,92,4.2,16.8,77,0.00,,,0.00,VWS V14.01,2014-01-01 15:44:00,
2014-01-01 10:49:00,-8.3,-13.8,30.49,ENE,71,2.8,16.8,76,0.00,,,0.00,VWS V14.01,2014-01-01 15:49:00,
2014-01-01 10:54:00,-8.1,-13.6,30.49,ENE,70,4.2,16.8,76,0.00,,,0.00,VWS V14.01,2014-01-01 15:54:00,
2014-01-01 10:59:00,-8.0,-13.8,30.50,SE,127,4.2,16.8,75,0.00,,,0.00,VWS V14.01,2014-01-01 15:59:00,
2014-01-01 11:00:00,-4.6,-11.6,30.49,ESE,103,2.8,16.8,71,0.00,,,0.00,VWS V14.01,2014-01-01 16:00:00,
2014-01-01 11:04:00,-7.6,-13.4,30.50,ESE,104,4.2,16.8,75,0.00,,,0.00,VWS V14.01,2014-01-01 16:04:00,
2014-01-01 11:09:00,-7.4,-13.2,30.50,ENE,63,8.4,16.8,75,0.00,,,0.00,VWS V14.01,2014-01-01 16:09:00,
2014-01-01 11:14:00,-7.4,-13.5,30.50,ESE,107,7.0,16.8,74,0.00,,,0.00,VWS V14.01,2014-01-01 16:14:00,
2014-01-01 11:19:00,-7.5,-13.8,30.50,ENE,64,5.6,16.8,73,0.00,,,0.00,VWS V14.01,2014-01-01 16:19:00,
2014-01-01 11:24:00,-7.1,-13.2,30.49,ESE,113,4.2,16.8,74,0.00,,,0.00,VWS V14.01,2014-01-01 16:24:00,
2014-01-01 11:29:00,-6.8,-12.6,30.49,East,96,9.8,16.8,75,0.00,,,0.00,VWS V14.01,2014-01-01 16:29:00,
2014-01-01 11:34:00,-6.7,-12.8,30.49,East,95,2.8,16.8,74,0.00,,,0.00,VWS V14.01,2014-01-01 16:34:00,
2014-01-01 11:39:00,-6.3,-12.4,30.49,East,82,8.4,16.8,74,0.00,,,0.00,VWS V14.01,2014-01-01 16:39:00,
2014-01-01 11:44:00,-5.9,-12.3,30.49,SSW,200,4.2,16.8,73,0.00,,,0.00,VWS V14.01,2014-01-01 16:44:00,
2014-01-01 11:49:00,-5.7,-12.1,30.49,SSE,160,2.8,16.8,73,0.00,,,0.00,VWS V14.01,2014-01-01 16:49:00,
2014-01-01 11:54:00,-5.2,-11.9,30.49,ESE,113,8.4,16.8,72,0.00,,,0.00,VWS V14.01,2014-01-01 16:54:00,
2014-01-01 11:59:00,-5.0,-12.0,30.49,SSE,150,2.8,16.8,71,0.00,,,0.00,VWS V14.01,2014-01-01 16:59:00,
2014-01-01 12:04:00,-4.3,-11.3,30.49,SE,146,4.2,7.0,71,0.00,,,0.00,VWS V14.01,2014-01-01 17:04:00,
2014-01-01 12:09:00,-4.0,-11.6,30.49,SE,129,5.6,8.4,69,0.00,,,0.00,VWS V14.01,2014-01-01 17:09:00,
2014-01-01 12:14:00,-4.1,-11.7,30.49,South,171,5.6,9.8,69,0.00,,,0.00,VWS V14.01,2014-01-01 17:14:00,
2014-01-01 12:19:00,-4.3,-12.2,30.49,East,91,2.8,9.8,68,0.00,,,0.00,VWS V14.01,2014-01-01 17:19:00,
2014-01-01 12:24:00,-4.3,-11.9,30.49,SE,124,7.0,9.8,69,0.00,,,0.00,VWS V14.01,2014-01-01 17:24:00,
2014-01-01 12:29:00,-4.2,-11.8,30.49,East,81,5.6,9.8,69,0.00,,,0.00,VWS V14.01,2014-01-01 17:29:00,
2014-01-01 12:34:00,-4.8,-12.4,30.49,East,82,4.2,9.8,69,0.00,,,0.00,VWS V14.01,2014-01-01 17:34:00,
2014-01-01 12:39:00,-4.8,-12.1,30.49,SE,128,4.2,9.8,70,0.00,,,0.00,VWS V14.01,2014-01-01 17:39:00,
2014-01-01 12:44:00,-4.8,-12.1,30.49,ESE,108,4.2,9.8,70,0.00,,,0.00,VWS V14.01,2014-01-01 17:44:00,
2014-01-01 12:49:00,-4.8,-12.1,30.49,ESE,118,5.6,9.8,70,0.00,,,0.00,VWS V14.01,2014-01-01 17:49:00,
2014-01-01 12:54:00,-4.8,-12.1,30.48,ESE,108,4.2,9.8,70,0.00,,,0.00,VWS V14.01,2014-01-01 17:54:00,
2014-01-01 12:59:00,-4.6,-11.6,30.48,ESE,121,1.4,9.8,71,0.00,,,0.00,VWS V14.01,2014-01-01 17:59:00,
2014-01-01 13:00:00,-3.1,-9.9,30.46,East,89,1.4,9.8,72,0.00,,,0.00,VWS V14.01,2014-01-01 18:00:00,
2014-01-01 13:04:00,-4.4,-11.4,30.48,East,95,4.2,9.8,71,0.00,,,0.00,VWS V14.01,2014-01-01 18:04:00,
2014-01-01 13:09:00,-4.4,-11.4,30.48,SE,142,5.6,9.8,71,0.00,,,0.00,VWS V14.01,2014-01-01 18:09:00,
2014-01-01 13:14:00,-4.4,-11.4,30.48,ESE,102,4.2,9.8,71,0.00,,,0.00,VWS V14.01,2014-01-01 18:14:00,
2014-01-01 13:19:00,-4.1,-10.8,30.47,ESE,105,2.8,9.8,72,0.00,,,0.00,VWS V14.01,2014-01-01 18:19:00,
2014-01-01 13:24:00,-3.9,-10.6,30.48,SSE,160,4.2,9.8,72,0.00,,,0.00,VWS V14.01,2014-01-01 18:24:00,
2014-01-01 13:29:00,-3.9,-10.6,30.47,SSE,153,1.4,9.8,72,0.00,,,0.00,VWS V14.01,2014-01-01 18:29:00,
2014-01-01 13:34:00,-3.8,-10.5,30.48,SE,136,1.4,9.8,72,0.00,,,0.00,VWS V14.01,2014-01-01 18:34:00,
2014-01-01 13:39:00,-3.6,-10.4,30.47,East,91,5.6,9.8,72,0.00,,,0.00,VWS V14.01,2014-01-01 18:39:00,
2014-01-01 13:44:00,-3.4,-10.1,30.47,ESE,117,4.2,9.8,72,0.00,,,0.00,VWS V14.01,2014-01-01 18:44:00,
2014-01-01 13:49:00,-3.0,-9.8,30.47,ESE,105,2.8,9.8,72,0.00,,,0.00,VWS V14.01,2014-01-01 18:49:00,
2014-01-01 13:54:00,-3.1,-9.9,30.47,East,91,2.8,9.8,72,0.00,,,0.00,VWS V14.01,2014-01-01 18:54:00,
2014-01-01 13:59:00,-3.2,-10.2,30.47,ESE,105,1.4,9.8,71,0.00,,,0.00,VWS V14.01,2014-01-01 18:59:00,
2014-01-01 14:04:00,-2.9,-9.4,30.46,East,101,2.8,4.2,73,0.00,,,0.00,VWS V14.01,2014-01-01 19:04:00,
2014-01-01 14:09:00,-2.9,-9.7,30.47,SE,143,2.8,7.0,72,0.00,,,0.00,VWS V14.01,2014-01-01 19:09:00,
2014-01-01 14:14:00,-2.6,-9.4,30.47,ESE,115,4.2,7.0,72,0.00,,,0.00,VWS V14.01,2014-01-01 19:14:00,
2014-01-01 14:19:00,-2.5,-9.3,30.47,East,101,2.8,7.0,72,0.00,,,0.00,VWS V14.01,2014-01-01 19:19:00,
2014-01-01 14:24:00,-2.4,-9.2,30.47,ESE,102,4.2,7.0,72,0.00,,,0.00,VWS V14.01,2014-01-01 19:24:00,
2014-01-01 14:29:00,-2.4,-9.2,30.47,ESE,113,4.2,7.0,72,0.00,,,0.00,VWS V14.01,2014-01-01 19:29:00,
2014-01-01 14:34:00,-2.3,-9.1,30.47,ESE,111,4.2,7.0,72,0.00,,,0.00,VWS V14.01,2014-01-01 19:34:00,
2014-01-01 14:39:00,-2.3,-9.1,30.47,South,184,5.6,7.0,72,0.00,,,0.00,VWS V14.01,2014-01-01 19:39:00,
2014-01-01 14:44:00,-2.1,-8.9,30.47,SE,124,4.2,7.0,72,0.00,,,0.00,VWS V14.01,2014-01-01 19:44:00,
2014-01-01 14:49:00,-2.2,-9.0,30.47,SE,136,2.8,7.0,72,0.00,,,0.00,VWS V14.01,2014-01-01 19:49:00,
2014-01-01 14:54:00,-2.1,-8.9,30.47,South,179,2.8,7.0,72,0.00,,,0.00,VWS V14.01,2014-01-01 19:54:00,
2014-01-01 14:59:00,-2.0,-8.5,30.46,South,174,4.2,7.0,73,0.00,,,0.00,VWS V14.01,2014-01-01 19:59:00,
2014-01-01 15:00:00,-3.3,-9.2,30.46,SSW,207,2.8,7.0,75,0.00,,,0.00,VWS V14.01,2014-01-01 20:00:00,
2014-01-01 15:04:00,-1.9,-8.7,30.46,ESE,123,1.4,7.0,72,0.00,,,0.00,VWS V14.01,2014-01-01 20:04:00,
2014-01-01 15:09:00,-1.7,-8.2,30.46,South,178,5.6,7.0,73,0.00,,,0.00,VWS V14.01,2014-01-01 20:09:00,
2014-01-01 15:14:00,-1.6,-8.4,30.46,SSE,157,2.8,7.0,72,0.00,,,0.00,VWS V14.01,2014-01-01 20:14:00,
2014-01-01 15:19:00,-1.5,-8.3,30.46,SE,133,1.4,7.0,72,0.00,,,0.00,VWS V14.01,2014-01-01 20:19:00,
2014-01-01 15:24:00,-1.6,-8.1,30.46,SE,146,1.4,7.0,73,0.00,,,0.00,VWS V14.01,2014-01-01 20:24:00,
2014-01-01 15:29:00,-1.6,-8.4,30.46,SE,131,1.4,7.0,72,0.00,,,0.00,VWS V14.01,2014-01-01 20:29:00,
2014-01-01 15:34:00,-1.8,-8.9,30.46,SSE,147,2.8,7.0,71,0.00,,,0.00,VWS V14.01,2014-01-01 20:34:00,
2014-01-01 15:39:00,-2.4,-9.5,30.46,South,177,4.2,7.0,71,0.00,,,0.00,VWS V14.01,2014-01-01 20:39:00,
2014-01-01 15:44:00,-2.7,-9.5,30.46,SW,218,1.4,7.0,72,0.00,,,0.00,VWS V14.01,2014-01-01 20:44:00,
2014-01-01 15:49:00,-2.9,-9.4,30.45,SSW,212,1.4,7.0,73,0.00,,,0.00,VWS V14.01,2014-01-01 20:49:00,
2014-01-01 15:54:00,-3.2,-9.4,30.46,South,176,1.4,7.0,74,0.00,,,0.00,VWS V14.01,2014-01-01 20:54:00,
2014-01-01 15:59:00,-3.2,-9.1,30.46,SW,218,1.4,7.0,75,0.00,,,0.00,VWS V14.01,2014-01-01 20:59:00,
2014-01-01 16:00:00,-3.3,-9.2,30.46,SSW,207,2.8,7.0,75,0.00,,,0.00,VWS V14.01,2014-01-01 21:00:00,
2014-01-01 16:04:00,-3.4,-9.3,30.46,South,184,1.4,2.8,75,0.00,,,0.00,VWS V14.01,2014-01-01 21:04:00,
2014-01-01 16:09:00,-3.7,-9.4,30.46,SSE,167,0.0,2.8,76,0.00,,,0.00,VWS V14.01,2014-01-01 21:09:00,
2014-01-01 16:14:00,-3.9,-9.5,30.45,SW,224,0.0,2.8,76,0.00,,,0.00,VWS V14.01,2014-01-01 21:14:00,
2014-01-01 16:19:00,-4.0,-9.4,30.45,SW,224,0.0,2.8,77,0.00,,,0.00,VWS V14.01,2014-01-01 21:19:00,
2014-01-01 16:24:00,-4.2,-9.3,30.45,SSW,195,0.0,2.8,78,0.00,,,0.00,VWS V14.01,2014-01-01 21:24:00,
2014-01-01 16:29:00,-4.3,-9.7,30.45,South,190,1.4,2.8,77,0.00,,,0.00,VWS V14.01,2014-01-01 21:29:00,
2014-01-01 16:34:00,-4.5,-9.9,30.45,WSW,243,0.0,2.8,77,0.00,,,0.00,VWS V14.01,2014-01-01 21:34:00,
2014-01-01 16:39:00,-4.7,-9.8,30.45,WSW,243,0.0,2.8,78,0.00,,,0.00,VWS V14.01,2014-01-01 21:39:00,
2014-01-01 16:44:00,-4.7,-9.5,30.45,SW,232,0.0,2.8,79,0.00,,,0.00,VWS V14.01,2014-01-01 21:44:00,
2014-01-01 16:49:00,-4.8,-9.6,30.45,SW,232,1.4,2.8,79,0.00,,,0.00,VWS V14.01,2014-01-01 21:49:00,
2014-01-01 16:54:00,-4.9,-9.7,30.45,SSW,194,1.4,2.8,79,0.00,,,0.00,VWS V14.01,2014-01-01 21:54:00,
2014-01-01 16:59:00,-5.2,-10.0,30.44,SSE,159,2.8,2.8,79,0.00,,,0.00,VWS V14.01,2014-01-01 21:59:00,
2014-01-01 17:00:00,-6.9,-11.4,30.46,SSW,211,0.0,4.2,80,0.00,,,0.00,VWS V14.01,2014-01-01 22:00:00,
2014-01-01 17:04:00,-5.4,-10.0,30.45,South,170,0.0,2.8,80,0.00,,,0.00,VWS V14.01,2014-01-01 22:04:00,
2014-01-01 17:09:00,-5.4,-10.0,30.44,South,171,0.0,2.8,80,0.00,,,0.00,VWS V14.01,2014-01-01 22:09:00,
2014-01-01 17:14:00,-5.4,-10.0,30.44,SW,221,1.4,2.8,80,0.00,,,0.00,VWS V14.01,2014-01-01 22:14:00,
2014-01-01 17:19:00,-5.4,-10.0,30.44,SW,218,1.4,2.8,80,0.00,,,0.00,VWS V14.01,2014-01-01 22:19:00,
2014-01-01 17:24:00,-5.7,-10.3,30.45,South,188,0.0,2.8,80,0.00,,,0.00,VWS V14.01,2014-01-01 22:24:00,
2014-01-01 17:29:00,-6.2,-10.8,30.45,South,173,0.0,2.8,80,0.00,,,0.00,VWS V14.01,2014-01-01 22:29:00,
2014-01-01 17:34:00,-6.3,-10.6,30.45,South,191,1.4,2.8,81,0.00,,,0.00,VWS V14.01,2014-01-01 22:34:00,
2014-01-01 17:39:00,-6.3,-10.6,30.45,SSW,212,1.4,2.8,81,0.00,,,0.00,VWS V14.01,2014-01-01 22:39:00,
2014-01-01 17:44:00,-6.3,-10.6,30.45,SSW,204,1.4,2.8,81,0.00,,,0.00,VWS V14.01,2014-01-01 22:44:00,
2014-01-01 17:49:00,-6.5,-10.8,30.45,South,172,2.8,2.8,81,0.00,,,0.00,VWS V14.01,2014-01-01 22:49:00,
2014-01-01 17:54:00,-6.8,-11.3,30.46,South,191,1.4,4.2,80,0.00,,,0.00,VWS V14.01,2014-01-01 22:54:00,
2014-01-01 17:59:00,-6.9,-11.4,30.46,SSE,167,0.0,4.2,80,0.00,,,0.00,VWS V14.01,2014-01-01 22:59:00,
2014-01-01 18:03:00,-7.0,-11.5,30.45,SSW,205,1.4,1.4,80,0.00,,,0.00,VWS V14.01,2014-01-01 23:03:00,
2014-01-01 18:08:00,-7.2,-12.0,30.45,South,191,1.4,2.8,79,0.00,,,0.00,VWS V14.01,2014-01-01 23:08:00,
2014-01-01 18:13:00,-7.4,-12.2,30.45,SW,236,1.4,2.8,79,0.00,,,0.00,VWS V14.01,2014-01-01 23:13:00,
2014-01-01 18:18:00,-7.6,-12.4,30.45,SW,233,0.0,2.8,79,0.00,,,0.00,VWS V14.01,2014-01-01 23:18:00,
2014-01-01 18:23:00,-7.8,-12.3,30.45,WSW,245,0.0,2.8,80,0.00,,,0.00,VWS V14.01,2014-01-01 23:23:00,
2014-01-01 18:28:00,-8.0,-12.5,30.46,SW,221,0.0,2.8,80,0.00,,,0.00,VWS V14.01,2014-01-01 23:28:00,
2014-01-01 18:33:00,-8.2,-12.7,30.45,SW,224,0.0,2.8,80,0.00,,,0.00,VWS V14.01,2014-01-01 23:33:00,
2014-01-01 18:38:00,-8.3,-12.8,30.45,SW,229,0.0,2.8,80,0.00,,,0.00,VWS V14.01,2014-01-01 23:38:00,
2014-01-01 18:43:00,-8.4,-12.6,30.46,SW,229,0.0,2.8,81,0.00,,,0.00,VWS V14.01,2014-01-01 23:43:00,
2014-01-01 18:48:00,-8.6,-13.1,30.46,SW,230,0.0,2.8,80,0.00,,,0.00,VWS V14.01,2014-01-01 23:48:00,
2014-01-01 18:53:00,-8.6,-12.9,30.46,SW,230,0.0,2.8,81,0.00,,,0.00,VWS V14.01,2014-01-01 23:53:00,
2014-01-01 18:58:00,-8.8,-13.3,30.46,SSW,210,0.0,2.8,80,0.00,,,0.00,VWS V14.01,2014-01-01 23:58:00,
2014-01-01 19:00:00,-10.2,-14.2,30.46,SW,224,0.0,2.8,82,0.00,,,0.00,VWS V14.01,2014-01-02 00:00:00,
2014-01-01 19:03:00,-9.5,-14.0,30.46,SSW,195,0.0,2.8,80,0.00,,,0.00,VWS V14.01,2014-01-02 00:03:00,
2014-01-01 19:08:00,-9.7,-13.9,30.46,SSW,195,0.0,2.8,81,0.00,,,0.00,VWS V14.01,2014-01-02 00:08:00,
2014-01-01 19:13:00,-10.0,-14.2,30.47,SSW,195,0.0,2.8,81,0.00,,,0.00,VWS V14.01,2014-01-02 00:13:00,
2014-01-01 19:18:00,-10.3,-14.5,30.47,SSW,205,0.0,2.8,81,0.00,,,0.00,VWS V14.01,2014-01-02 00:18:00,
2014-01-01 19:23:00,-10.1,-14.1,30.47,SSW,205,0.0,2.8,82,0.00,,,0.00,VWS V14.01,2014-01-02 00:23:00,
2014-01-01 19:28:00,-9.7,-13.7,30.47,SSW,205,0.0,2.8,82,0.00,,,0.00,VWS V14.01,2014-01-02 00:28:00,
2014-01-01 19:33:00,-9.5,-13.5,30.46,SSW,205,0.0,2.8,82,0.00,,,0.00,VWS V14.01,2014-01-02 00:33:00,
2014-01-01 19:38:00,-9.5,-13.7,30.46,SSW,205,0.0,2.8,81,0.00,,,0.00,VWS V14.01,2014-01-02 00:38:00,
2014-01-01 19:43:00,-9.9,-14.4,30.46,SSW,205,0.0,2.8,80,0.00,,,0.00,VWS V14.01,2014-01-02 00:43:00,
2014-01-01 19:48:00,-10.3,-14.5,30.46,SSW,203,0.0,2.8,81,0.00,,,0.00,VWS V14.01,2014-01-02 00:48:00,
2014-01-01 19:53:00,-10.4,-14.6,30.46,SW,224,0.0,2.8,81,0.00,,,0.00,VWS V14.01,2014-01-02 00:53:00,
2014-01-01 19:58:00,-10.3,-14.5,30.46,SW,224,0.0,2.8,81,0.00,,,0.00,VWS V14.01,2014-01-02 00:58:00,
2014-01-01 20:03:00,-10.1,-14.1,30.46,SW,224,0.0,0.0,82,0.00,,,0.00,VWS V14.01,2014-01-02 01:03:00,
2014-01-01 20:08:00,-10.3,-14.5,30.46,SSW,195,0.0,1.4,81,0.00,,,0.00,VWS V14.01,2014-01-02 01:08:00,
2014-01-01 20:13:00,-10.6,-14.8,30.46,SSW,194,0.0,1.4,81,0.00,,,0.00,VWS V14.01,2014-01-02 01:13:00,
2014-01-01 20:18:00,-10.2,-14.2,30.46,SSW,205,0.0,1.4,82,0.00,,,0.00,VWS V14.01,2014-01-02 01:18:00,
2014-01-01 20:23:00,-9.9,-13.9,30.45,SSW,212,0.0,1.4,82,0.00,,,0.00,VWS V14.01,2014-01-02 01:23:00,
2014-01-01 20:28:00,-9.9,-14.1,30.45,SSW,212,0.0,1.4,81,0.00,,,0.00,VWS V14.01,2014-01-02 01:28:00,
2014-01-01 20:33:00,-10.1,-14.3,30.45,SSW,212,0.0,1.4,81,0.00,,,0.00,VWS V14.01,2014-01-02 01:33:00,
2014-01-01 20:38:00,-9.9,-14.1,30.45,SSW,212,0.0,1.4,81,0.00,,,0.00,VWS V14.01,2014-01-02 01:38:00,
2014-01-01 20:43:00,-9.6,-13.8,30.45,SSW,212,0.0,1.4,81,0.00,,,0.00,VWS V14.01,2014-01-02 01:43:00,
2014-01-01 20:48:00,-9.9,-14.4,30.45,SW,226,0.0,1.4,80,0.00,,,0.00,VWS V14.01,2014-01-02 01:48:00,
2014-01-01 20:53:00,-10.0,-14.2,30.45,SSW,212,0.0,1.4,81,0.00,,,0.00,VWS V14.01,2014-01-02 01:53:00,
2014-01-01 20:58:00,-10.2,-14.4,30.44,WSW,238,1.4,2.8,81,0.00,,,0.00,VWS V14.01,2014-01-02 01:58:00,
2014-01-01 21:00:00,-10.2,-14.2,30.44,WSW,239,0.0,2.8,82,0.00,,,0.00,VWS V14.01,2014-01-02 02:00:00,
2014-01-01 21:03:00,-10.6,-15.1,30.44,SW,214,0.0,2.8,80,0.00,,,0.00,VWS V14.01,2014-01-02 02:03:00,
2014-01-01 21:08:00,-10.6,-14.8,30.44,SW,233,1.4,2.8,81,0.00,,,0.00,VWS V14.01,2014-01-02 02:08:00,
2014-01-01 21:13:00,-10.5,-14.7,30.44,SW,221,0.0,2.8,81,0.00,,,0.00,VWS V14.01,2014-01-02 02:13:00,
2014-01-01 21:18:00,-10.5,-14.7,30.44,SW,224,0.0,2.8,81,0.00,,,0.00,VWS V14.01,2014-01-02 02:18:00,
2014-01-01 21:23:00,-10.5,-14.7,30.44,SW,218,0.0,2.8,81,0.00,,,0.00,VWS V14.01,2014-01-02 02:23:00,
2014-01-01 21:28:00,-10.6,-14.8,30.44,SW,218,0.0,2.8,81,0.00,,,0.00,VWS V14.01,2014-01-02 02:28:00,
2014-01-01 21:33:00,-10.4,-14.4,30.43,SSW,210,0.0,2.8,82,0.00,,,0.00,VWS V14.01,2014-01-02 02:33:00,
2014-01-01 21:38:00,-10.6,-14.8,30.44,SSE,158,0.0,2.8,81,0.00,,,0.00,VWS V14.01,2014-01-02 02:38:00,
2014-01-01 21:43:00,-10.7,-14.9,30.44,South,169,0.0,2.8,81,0.00,,,0.00,VWS V14.01,2014-01-02 02:43:00,
2014-01-01 21:48:00,-10.4,-14.4,30.43,SSE,165,0.0,2.8,82,0.00,,,0.00,VWS V14.01,2014-01-02 02:48:00,
2014-01-01 21:53:00,-10.4,-14.6,30.44,SW,230,0.0,2.8,81,0.00,,,0.00,VWS V14.01,2014-01-02 02:53:00,
2014-01-01 21:58:00,-10.4,-14.6,30.44,SW,215,0.0,2.8,81,0.00,,,0.00,VWS V14.01,2014-01-02 02:58:00,
2014-01-01 22:00:00,-10.2,-14.2,30.44,WSW,239,0.0,2.8,82,0.00,,,0.00,VWS V14.01,2014-01-02 03:00:00,
2014-01-01 22:03:00,-10.1,-14.1,30.44,SW,214,0.0,1.4,82,0.00,,,0.00,VWS V14.01,2014-01-02 03:03:00,
2014-01-01 22:08:00,-10.1,-14.3,30.44,SW,221,1.4,1.4,81,0.00,,,0.00,VWS V14.01,2014-01-02 03:08:00,
2014-01-01 22:13:00,-10.1,-14.3,30.44,SW,215,2.8,2.8,81,0.00,,,0.00,VWS V14.01,2014-01-02 03:13:00,
2014-01-01 22:18:00,-10.1,-14.3,30.44,WSW,237,1.4,2.8,81,0.00,,,0.00,VWS V14.01,2014-01-02 03:18:00,
2014-01-01 22:23:00,-10.0,-14.2,30.44,SW,230,0.0,2.8,81,0.00,,,0.00,VWS V14.01,2014-01-02 03:23:00,
2014-01-01 22:28:00,-9.8,-14.0,30.44,SW,225,0.0,2.8,81,0.00,,,0.00,VWS V14.01,2014-01-02 03:28:00,
2014-01-01 22:33:00,-9.6,-13.6,30.44,SW,225,0.0,2.8,82,0.00,,,0.00,VWS V14.01,2014-01-02 03:33:00,
2014-01-01 22:38:00,-9.5,-13.5,30.44,SW,218,0.0,2.8,82,0.00,,,0.00,VWS V14.01,2014-01-02 03:38:00,
2014-01-01 22:43:00,-9.4,-13.6,30.44,SW,225,0.0,2.8,81,0.00,,,0.00,VWS V14.01,2014-01-02 03:43:00,
2014-01-01 22:48:00,-9.5,-13.7,30.44,SW,214,0.0,2.8,81,0.00,,,0.00,VWS V14.01,2014-01-02 03:48:00,
2014-01-01 22:53:00,-10.0,-14.5,30.44,SSW,198,0.0,2.8,80,0.00,,,0.00,VWS V14.01,2014-01-02 03:53:00,
2014-01-01 22:58:00,-10.9,-15.6,30.44,SSE,158,1.4,2.8,79,0.00,,,0.00,VWS V14.01,2014-01-02 03:58:00,
2014-01-01 23:00:00,-13.3,-17.5,30.43,SSW,212,0.0,2.8,81,0.00,,,0.00,VWS V14.01,2014-01-02 04:00:00,
2014-01-01 23:03:00,-11.0,-15.2,30.44,SE,142,1.4,2.8,81,0.00,,,0.00,VWS V14.01,2014-01-02 04:03:00,
2014-01-01 23:08:00,-10.6,-14.6,30.44,SE,142,0.0,2.8,82,0.00,,,0.00,VWS V14.01,2014-01-02 04:08:00,
2014-01-01 23:13:00,-10.2,-13.9,30.44,South,170,1.4,2.8,83,0.00,,,0.00,VWS V14.01,2014-01-02 04:13:00,
2014-01-01 23:18:00,-10.2,-14.2,30.44,SSW,201,0.0,2.8,82,0.00,,,0.00,VWS V14.01,2014-01-02 04:18:00,
2014-01-01 23:23:00,-10.5,-14.7,30.44,SSW,201,0.0,2.8,81,0.00,,,0.00,VWS V14.01,2014-01-02 04:23:00,
2014-01-01 23:28:00,-10.8,-15.0,30.43,SSW,201,0.0,2.8,81,0.00,,,0.00,VWS V14.01,2014-01-02 04:28:00,
2014-01-01 23:33:00,-10.9,-14.9,30.43,SSW,201,0.0,2.8,82,0.00,,,0.00,VWS V14.01,2014-01-02 04:33:00,
2014-01-01 23:38:00,-11.3,-15.5,30.43,SSW,204,0.0,2.8,81,0.00,,,0.00,VWS V14.01,2014-01-02 04:38:00,
2014-01-01 23:43:00,-11.6,-15.8,30.43,SSW,204,1.4,2.8,81,0.00,,,0.00,VWS V14.01,2014-01-02 04:43:00,
2014-01-01 23:48:00,-12.1,-16.5,30.43,South,188,1.4,2.8,80,0.00,,,0.00,VWS V14.01,2014-01-02 04:48:00,
2014-01-01 23:53:00,-12.9,-17.3,30.43,South,189,0.0,2.8,80,0.00,,,0.00,VWS V14.01,2014-01-02 04:53:00,
2014-01-01 23:58:00,-12.9,-16.8,30.44,SW,214,1.4,2.8,82,0.00,,,0.00,VWS V14.01,2014-01-02 04:58:00,